Startpagina
METAR-TAF:

METAR-TAF

Vliegvelden :

Aeroporto Internacional Hercílio Luz

Florianópolis, Santa Catarina, Brazilië

breedte: 27-40S, lengte: 048-33W, hoogte: 5 m

Actueel weer

Dit bericht is 15 minuten geleden gemaakt, om 02:00 UTC
Wind 4 kt uit het noorden
Temperatuur 18°C
Vochtigheid 94%
Druk 1016 hPa
Zicht 10 km of meer
geen wolken onder 1500 m en geen cumulonimbus

METAR: SBFL 190200Z 35004KT CAVOK 18/17 Q1016

Tijdstip: 23:15 (02:15 UTC)

Verwachting

Dit bericht is 4 uur en het 15 minuten geleden gemaakt, om 22:00 UTC
Verwachting geldig van 19 om 00 UTC tot 19 om 24 UTC
Wind 7 kt uit het noordwesten
Zicht 10 km of meer
geen wolken onder 1500 m en geen cumulonimbus
Wijzigt naar
van 19 om 12 UTC tot 19 om 14 UTC
Wind 12 kt uit het noorden

TAF: SBFL 182200Z 1900/1924 31007KT CAVOK TN17/1908Z TX25/1918Z BECMG 1912/1914 35012KT RMK PER

Waarnemingen en weersverwachtingen van meer dan 4000 vliegvelden (METAR en TAF).

De beschikbare stations zijn de gele en rode punten op de kaart.

Ga met uw muis naar het station om de naam te zien.

Klik dan om waarnemingen en weersverwachtingen te zien.

kaart wijzigen: klik op de groene knoppen met een zwart kruis om in te zoomen, op de groene knop met een streepje om uit te zoomen of op de groene pijlen voor aangrenzende kaarten.


METAR-TAF: